createdAt,value
2019-04-29T00:02:18.464Z,101216.89
2019-04-29T00:04:46.874Z,101212.59
2019-04-29T00:07:15.310Z,101218.11
2019-04-29T00:09:43.706Z,101211.61
2019-04-29T00:12:12.353Z,101223.42
2019-04-29T00:14:42.662Z,101226.63
2019-04-29T00:17:15.548Z,101223.09
2019-04-29T00:20:02.057Z,101225.41
2019-04-29T00:22:31.720Z,101223.23
2019-04-29T00:25:00.210Z,101223.83
2019-04-29T00:27:28.605Z,101222.20
2019-04-29T00:29:57.033Z,101220.15
2019-04-29T00:32:25.435Z,101216.78
2019-04-29T00:34:53.853Z,101217.03
2019-04-29T00:37:23.890Z,101216.40
2019-04-29T00:39:56.873Z,101213.13
2019-04-29T00:42:39.141Z,101210.85
2019-04-29T00:45:08.492Z,101211.81
2019-04-29T00:47:36.966Z,101212.91
2019-04-29T00:50:10.134Z,101218.55
2019-04-29T00:52:38.536Z,101205.93
2019-04-29T00:55:08.960Z,101213.28
2019-04-29T00:57:37.361Z,101212.05
2019-04-29T01:00:07.479Z,101203.75
2019-04-29T01:02:35.995Z,101207.82
2019-04-29T01:05:06.129Z,101210.64
2019-04-29T01:07:34.553Z,101216.86
2019-04-29T01:10:03.065Z,101216.34
2019-04-29T01:12:31.714Z,101221.73
2019-04-29T01:15:00.179Z,101220.55
2019-04-29T01:17:28.605Z,101219.46
2019-04-29T01:19:57.031Z,101227.06
2019-04-29T01:22:25.451Z,101223.67
2019-04-29T01:24:53.859Z,101226.42
2019-04-29T01:27:23.903Z,101224.47
2019-04-29T01:29:52.317Z,101227.02
2019-04-29T01:32:20.962Z,101220.62
2019-04-29T01:34:54.087Z,101222.20
2019-04-29T01:37:24.294Z,101223.64
2019-04-29T01:39:54.348Z,101221.44
2019-04-29T01:42:24.419Z,101229.94
2019-04-29T01:44:52.845Z,101231.46
2019-04-29T01:47:21.265Z,101234.33
2019-04-29T01:49:49.693Z,101234.26
2019-04-29T01:52:18.088Z,101233.13
2019-04-29T01:54:46.522Z,101232.70
2019-04-29T01:57:14.909Z,101230.90
2019-04-29T01:59:43.313Z,101225.41
2019-04-29T02:02:11.803Z,101232.11
2019-04-29T02:04:40.314Z,101228.72
2019-04-29T02:07:08.712Z,101232.36
2019-04-29T02:09:44.483Z,101236.34
2019-04-29T02:12:12.943Z,101234.02
2019-04-29T02:14:41.364Z,101232.30
2019-04-29T02:17:09.751Z,101228.75
2019-04-29T02:19:38.185Z,101234.69
2019-04-29T02:22:16.985Z,101234.26
2019-04-29T02:25:01.962Z,101226.27
2019-04-29T02:27:30.368Z,101228.45
2019-04-29T02:29:58.798Z,101228.75
2019-04-29T02:32:28.860Z,101225.69
2019-04-29T02:34:57.290Z,101227.42
2019-04-29T02:37:30.163Z,101222.52
2019-04-29T02:40:00.298Z,101227.75
2019-04-29T02:42:45.310Z,101226.72
2019-04-29T02:45:16.178Z,101226.62
2019-04-29T02:47:44.569Z,101231.05
2019-04-29T02:50:13.245Z,101235.43
2019-04-29T02:52:41.649Z,101234.17
2019-04-29T02:55:12.136Z,101230.23
2019-04-29T02:57:58.522Z,101231.45
2019-04-29T03:00:44.515Z,101232.42
2019-04-29T03:03:17.432Z,101230.95
2019-04-29T03:05:47.479Z,101234.34
2019-04-29T03:08:15.973Z,101232.78
2019-04-29T03:10:44.360Z,101229.56
2019-04-29T03:13:12.866Z,101228.70
2019-04-29T03:15:43.104Z,101227.69
2019-04-29T03:18:11.660Z,101230.22
2019-04-29T03:20:50.396Z,101234.25
2019-04-29T03:23:20.499Z,101233.14
2019-04-29T03:25:49.019Z,101233.67
2019-04-29T03:28:17.406Z,101227.63
2019-04-29T03:30:45.833Z,101231.21
2019-04-29T03:33:14.256Z,101230.13
2019-04-29T03:35:42.670Z,101230.73
2019-04-29T03:38:11.058Z,101232.36
2019-04-29T03:40:39.558Z,101232.86
2019-04-29T03:43:07.964Z,101234.75
2019-04-29T03:45:36.605Z,101232.36
2019-04-29T03:48:05.110Z,101245.31
2019-04-29T03:50:33.556Z,101240.87
2019-04-29T03:53:01.977Z,101236.89
2019-04-29T03:55:39.657Z,101232.73
2019-04-29T03:58:00.564Z,101232.66
2019-04-29T04:00:29.059Z,101237.23
2019-04-29T04:02:59.108Z,101238.11
2019-04-29T04:05:40.772Z,101234.90
2019-04-29T04:08:19.640Z,101240.58
2019-04-29T04:10:50.787Z,101240.58
2019-04-29T04:13:19.185Z,101236.38
2019-04-29T04:15:47.598Z,101240.11
2019-04-29T04:18:20.417Z,101243.45
2019-04-29T04:20:48.841Z,101246.46
2019-04-29T04:23:17.237Z,101253.06
2019-04-29T04:25:45.653Z,101250.66
2019-04-29T04:28:14.052Z,101264.80
2019-04-29T04:30:42.495Z,101266.45
2019-04-29T04:33:11.030Z,101264.66
2019-04-29T04:35:39.421Z,101263.06
2019-04-29T04:38:07.857Z,101268.07
2019-04-29T04:40:40.472Z,101263.06
2019-04-29T04:43:08.898Z,101264.02
2019-04-29T04:45:37.352Z,101268.52
2019-04-29T04:48:05.784Z,101267.73
2019-04-29T04:50:34.221Z,101273.55
2019-04-29T04:53:02.618Z,101278.45
2019-04-29T04:55:32.686Z,101278.76
2019-04-29T04:58:01.156Z,101281.91
2019-04-29T05:00:31.305Z,101288.33
2019-04-29T05:02:59.703Z,101296.35
2019-04-29T05:05:28.098Z,101298.98
2019-04-29T05:07:56.530Z,101300.24
2019-04-29T05:10:24.974Z,101298.58
2019-04-29T05:12:53.385Z,101296.18
2019-04-29T05:15:21.842Z,101298.92
2019-04-29T05:17:53.065Z,101301.59
2019-04-29T05:20:20.406Z,101306.16
2019-04-29T05:23:00.695Z,101312.76
2019-04-29T05:25:31.463Z,101311.09
2019-04-29T05:28:00.600Z,101315.86
2019-04-29T05:30:29.106Z,101312.04
2019-04-29T05:32:57.550Z,101311.77
2019-04-29T05:35:33.141Z,101318.75
2019-04-29T05:38:15.379Z,101318.04
2019-04-29T05:40:45.412Z,101316.24
2019-04-29T05:43:18.481Z,101310.67
2019-04-29T05:45:50.958Z,101313.20
2019-04-29T05:48:21.140Z,101321.16
2019-04-29T05:50:52.071Z,101320.87
2019-04-29T05:53:25.874Z,101327.76
2019-04-29T05:55:54.331Z,101328.30
2019-04-29T05:58:22.750Z,101330.19
2019-04-29T06:00:52.804Z,101325.19
2019-04-29T06:03:21.220Z,101325.73
2019-04-29T06:05:49.723Z,101332.73
2019-04-29T06:08:20.830Z,101335.09
2019-04-29T06:10:50.374Z,101333.30
2019-04-29T06:13:18.784Z,101341.91
2019-04-29T06:15:47.188Z,101343.39
2019-04-29T06:18:17.648Z,101347.43
2019-04-29T06:20:45.768Z,101345.63
2019-04-29T06:23:14.167Z,101353.20
2019-04-29T06:25:42.572Z,101351.13
2019-04-29T06:28:11.016Z,101356.63
2019-04-29T06:30:40.715Z,101359.06
2019-04-29T06:33:09.270Z,101356.63
2019-04-29T06:35:37.767Z,101361.12
2019-04-29T06:38:06.179Z,101356.16
2019-04-29T06:40:35.409Z,101357.64
2019-04-29T06:43:04.986Z,101363.45
2019-04-29T06:45:33.423Z,101358.63
2019-04-29T06:48:01.826Z,101352.75
2019-04-29T06:50:30.228Z,101354.81
2019-04-29T06:52:58.651Z,101358.55
2019-04-29T06:55:27.062Z,101359.40
2019-04-29T06:57:55.485Z,101361.92
2019-04-29T07:00:24.082Z,101364.72
2019-04-29T07:02:52.509Z,101356.40
2019-04-29T07:05:20.935Z,101359.31
2019-04-29T07:07:49.366Z,101352.70
2019-04-29T07:10:21.271Z,101354.97
2019-04-29T07:12:48.507Z,101355.20
2019-04-29T07:15:17.138Z,101363.64
2019-04-29T07:17:45.590Z,101351.96
2019-04-29T07:20:14.119Z,101356.66
2019-04-29T07:22:42.629Z,101357.61
2019-04-29T07:25:11.172Z,101357.51
2019-04-29T07:27:43.503Z,101357.86
2019-04-29T07:30:10.229Z,101354.61
2019-04-29T07:32:42.259Z,101363.63
2019-04-29T07:35:09.864Z,101356.25
2019-04-29T07:37:39.052Z,101364.09
2019-04-29T07:40:09.363Z,101358.33
2019-04-29T07:42:37.917Z,101360.09
2019-04-29T07:45:17.270Z,101360.05
2019-04-29T07:47:56.360Z,101360.06
2019-04-29T07:50:17.582Z,101357.89
2019-04-29T07:52:49.956Z,101352.24
2019-04-29T07:55:16.332Z,101353.81
2019-04-29T07:57:47.790Z,101344.73
2019-04-29T08:00:15.815Z,101349.14
2019-04-29T08:02:44.816Z,101351.14
2019-04-29T08:05:13.390Z,101357.78
2019-04-29T08:07:42.343Z,101348.69
2019-04-29T08:10:23.220Z,101346.27
2019-04-29T08:12:42.803Z,101345.78
2019-04-29T08:15:13.100Z,101342.23
2019-04-29T08:17:41.500Z,101341.64
2019-04-29T08:20:10.356Z,101344.94
2019-04-29T08:22:38.804Z,101337.23
2019-04-29T08:25:08.654Z,101331.86
2019-04-29T08:27:40.694Z,101338.37
2019-04-29T08:30:11.238Z,101334.64
2019-04-29T08:32:38.189Z,101332.63
2019-04-29T08:35:07.614Z,101331.48
2019-04-29T08:37:36.047Z,101336.00
2019-04-29T08:40:15.887Z,101329.88
2019-04-29T08:42:46.832Z,101335.48
2019-04-29T08:45:16.442Z,101330.24
2019-04-29T08:47:49.522Z,101329.56
2019-04-29T08:50:17.934Z,101329.17
2019-04-29T08:52:46.348Z,101332.73
2019-04-29T08:55:15.010Z,101329.20
2019-04-29T08:57:43.487Z,101325.84
2019-04-29T09:00:12.808Z,101324.87
2019-04-29T09:02:46.773Z,101328.94
2019-04-29T09:05:13.306Z,101320.56
2019-04-29T09:07:41.752Z,101324.61
2019-04-29T09:10:11.013Z,101315.78
2019-04-29T09:12:39.463Z,101316.42
2019-04-29T09:15:09.435Z,101314.69
2019-04-29T09:17:37.913Z,101313.27
2019-04-29T09:20:07.499Z,101312.64
2019-04-29T09:22:37.615Z,101316.69
2019-04-29T09:25:11.635Z,101322.70
2019-04-29T09:27:45.049Z,101323.53
2019-04-29T09:30:13.827Z,101318.42
2019-04-29T09:32:42.272Z,101310.09
2019-04-29T09:35:10.811Z,101308.56
2019-04-29T09:37:39.244Z,101305.66
2019-04-29T09:40:11.300Z,101312.17
2019-04-29T09:42:45.564Z,101309.00
2019-04-29T09:45:14.695Z,101304.55
2019-04-29T09:47:43.520Z,101298.14
2019-04-29T09:50:12.203Z,101295.26
2019-04-29T09:52:40.721Z,101301.03
2019-04-29T09:55:09.471Z,101297.74
2019-04-29T09:57:37.925Z,101294.77
2019-04-29T10:00:10.220Z,101293.92
2019-04-29T10:02:43.047Z,101286.84
2019-04-29T10:05:19.019Z,101290.98
2019-04-29T10:07:47.463Z,101286.53
2019-04-29T10:10:16.004Z,101293.02
2019-04-29T10:12:44.521Z,101284.57
2019-04-29T10:15:14.671Z,101287.77
2019-04-29T10:17:50.841Z,101286.61
2019-04-29T10:20:19.456Z,101286.89
2019-04-29T10:22:50.220Z,101292.32
2019-04-29T10:25:18.318Z,101283.70
2019-04-29T10:27:46.745Z,101283.31
2019-04-29T10:30:17.065Z,101277.63
2019-04-29T10:32:45.568Z,101270.35
2019-04-29T10:35:14.395Z,101268.06
2019-04-29T10:37:42.884Z,101257.55
2019-04-29T10:40:30.237Z,101257.61
2019-04-29T10:43:15.562Z,101254.98
2019-04-29T10:45:50.411Z,101252.07
2019-04-29T10:48:24.363Z,101255.90
2019-04-29T10:50:54.005Z,101253.38
2019-04-29T10:53:24.519Z,101248.89
2019-04-29T10:55:53.267Z,101254.02
2019-04-29T10:58:26.638Z,101249.38
2019-04-29T11:01:12.983Z,101238.45
2019-04-29T11:03:43.410Z,101237.26
2019-04-29T11:06:11.908Z,101244.55
2019-04-29T11:08:43.238Z,101231.30
2019-04-29T11:11:23.017Z,101229.25
2019-04-29T11:13:48.182Z,101226.14
2019-04-29T11:16:13.477Z,101223.91
2019-04-29T11:18:41.980Z,101223.01
2019-04-29T11:21:10.533Z,101210.64
2019-04-29T11:23:50.623Z,101205.11
2019-04-29T11:26:24.689Z,101205.90
2019-04-29T11:28:54.820Z,101202.52
2019-04-29T11:31:23.364Z,101191.28
2019-04-29T11:34:05.253Z,101192.07
2019-04-29T11:36:34.978Z,101181.23
2019-04-29T11:39:02.514Z,101183.83
2019-04-29T11:41:31.647Z,101174.72
2019-04-29T11:44:00.099Z,101169.31
2019-04-29T11:46:28.586Z,101174.22
2019-04-29T11:48:58.719Z,101167.55
2019-04-29T11:51:43.844Z,101161.30
2019-04-29T11:54:08.299Z,101159.02
2019-04-29T11:56:34.913Z,101159.37
2019-04-29T11:59:09.032Z,101148.30
2019-04-29T12:01:55.322Z,101148.35
2019-04-29T12:04:37.331Z,101143.17
2019-04-29T12:07:08.525Z,101145.87
2019-04-29T12:09:36.985Z,101143.21
2019-04-29T12:12:07.889Z,101146.28
2019-04-29T12:14:43.763Z,101139.91
2019-04-29T12:17:26.076Z,101132.98
2019-04-29T12:19:58.833Z,101137.86
2019-04-29T12:22:30.907Z,101135.89
2019-04-29T12:24:57.604Z,101134.55
2019-04-29T12:27:29.073Z,101131.63
2019-04-29T12:29:59.465Z,101125.17
2019-04-29T12:32:27.949Z,101129.58
2019-04-29T12:35:03.998Z,101125.27
2019-04-29T12:37:34.481Z,101128.30
2019-04-29T12:40:21.484Z,101128.44
2019-04-29T12:42:55.243Z,101128.94
2019-04-29T12:45:28.233Z,101123.50
2019-04-29T12:47:56.774Z,101125.53
2019-04-29T12:50:25.449Z,101117.42
2019-04-29T12:52:53.933Z,101119.44
2019-04-29T12:55:44.140Z,101121.42
2019-04-29T12:58:00.311Z,101117.26
2019-04-29T13:00:47.374Z,101115.70
2019-04-29T13:03:30.854Z,101108.00
2019-04-29T13:06:02.598Z,101107.98
2019-04-29T13:08:38.811Z,101107.35
2019-04-29T13:11:09.207Z,101107.58
2019-04-29T13:13:37.684Z,101112.42
2019-04-29T13:16:25.902Z,101103.99
2019-04-29T13:19:11.614Z,101097.33
2019-04-29T13:21:31.961Z,101088.75
2019-04-29T13:24:13.877Z,101088.75
2019-04-29T13:26:33.424Z,101087.41
2019-04-29T13:29:01.690Z,101083.75
2019-04-29T13:31:38.068Z,101078.92
2019-04-29T13:34:14.698Z,101074.23
2019-04-29T13:36:32.669Z,101071.06
2019-04-29T13:39:01.782Z,101066.56
2019-04-29T13:41:30.462Z,101063.33
2019-04-29T13:44:05.347Z,101057.99
2019-04-29T13:46:32.373Z,101058.90
2019-04-29T13:49:12.851Z,101057.06
2019-04-29T13:51:36.975Z,101057.87
2019-04-29T13:54:06.654Z,101061.08
2019-04-29T13:56:54.192Z,101052.05
2019-04-29T13:59:10.678Z,101049.87
2019-04-29T14:01:57.846Z,101053.98
2019-04-29T14:04:13.886Z,101053.98
2019-04-29T14:06:56.110Z,101052.16
2019-04-29T14:09:14.610Z,101047.63
2019-04-29T14:11:43.375Z,101046.63
2019-04-29T14:14:11.787Z,101042.62
2019-04-29T14:16:43.167Z,101042.97
2019-04-29T14:19:10.387Z,101038.62
2019-04-29T14:21:38.813Z,101042.94
2019-04-29T14:24:07.228Z,101033.90
2019-04-29T14:26:36.950Z,101030.92
2019-04-29T14:29:05.871Z,101023.53
2019-04-29T14:31:34.302Z,101028.21
2019-04-29T14:34:10.135Z,101028.66
2019-04-29T14:36:38.547Z,101024.47
2019-04-29T14:39:13.077Z,101020.13
2019-04-29T14:41:41.544Z,101024.81
2019-04-29T14:44:17.934Z,101025.61
2019-04-29T14:47:02.985Z,101031.73
2019-04-29T14:49:39.837Z,101025.36
2019-04-29T14:52:08.152Z,101029.35
2019-04-29T14:54:36.951Z,101028.36
2019-04-29T14:57:09.134Z,101027.38
2019-04-29T14:59:36.965Z,101033.90
2019-04-29T15:02:07.360Z,101044.03
2019-04-29T15:04:37.516Z,101041.69
2019-04-29T15:07:06.090Z,101051.77
2019-04-29T15:09:45.865Z,101058.08
2019-04-29T15:12:09.676Z,101069.36
2019-04-29T15:14:47.602Z,101079.27
2019-04-29T15:17:27.172Z,101081.78
2019-04-29T15:19:57.687Z,101081.88
2019-04-29T15:22:27.869Z,101078.20
2019-04-29T15:24:56.330Z,101086.78
2019-04-29T15:27:24.727Z,101083.60
2019-04-29T15:29:53.165Z,101082.91
2019-04-29T15:32:22.395Z,101082.62
2019-04-29T15:34:51.739Z,101085.86
2019-04-29T15:37:20.145Z,101083.89
2019-04-29T15:39:48.566Z,101086.61
2019-04-29T15:42:17.011Z,101083.89
2019-04-29T15:44:45.422Z,101083.81
2019-04-29T15:47:13.938Z,101086.68
2019-04-29T15:49:42.344Z,101085.49
2019-04-29T15:52:10.771Z,101081.44
2019-04-29T15:54:39.191Z,101078.46
2019-04-29T15:57:09.269Z,101078.61
2019-04-29T15:59:48.510Z,101084.45
2019-04-29T16:02:08.423Z,101080.45
2019-04-29T16:04:47.227Z,101086.05
2019-04-29T16:07:25.659Z,101073.75
2019-04-29T16:09:58.545Z,101071.55
2019-04-29T16:12:34.268Z,101067.23
2019-04-29T16:15:02.698Z,101071.98
2019-04-29T16:17:31.765Z,101067.84
2019-04-29T16:20:01.451Z,101066.02
2019-04-29T16:22:29.855Z,101069.80
2019-04-29T16:27:28.425Z,101062.00
2019-04-29T16:29:56.865Z,101058.90
2019-04-29T16:32:30.021Z,101055.25
2019-04-29T16:34:58.448Z,101056.52
2019-04-29T16:37:31.719Z,101058.69
2019-04-29T16:39:59.855Z,101055.89
2019-04-29T16:42:28.951Z,101057.47
2019-04-29T16:44:57.466Z,101063.33
2019-04-29T16:47:26.075Z,101056.36
2019-04-29T16:49:57.740Z,101056.82
2019-04-29T16:52:24.686Z,101055.00
2019-04-29T16:54:53.194Z,101051.01
2019-04-29T16:57:21.649Z,101044.12
2019-04-29T16:59:50.085Z,101048.95
2019-04-29T17:02:19.753Z,101044.05
2019-04-29T17:04:48.640Z,101045.58
2019-04-29T17:07:17.875Z,101047.45
2019-04-29T17:09:54.189Z,101040.86
2019-04-29T17:12:29.332Z,101035.30
2019-04-29T17:15:03.953Z,101038.17
2019-04-29T17:17:29.210Z,101038.84
2019-04-29T17:20:01.898Z,101038.28
2019-04-29T17:22:35.595Z,101022.88
2019-04-29T17:25:10.054Z,101028.34
2019-04-29T17:27:47.153Z,101027.69
2019-04-29T17:33:29.820Z,101028.69
2019-04-29T17:35:14.119Z,101070.16
2019-04-29T17:35:14.780Z,101014.84
2019-04-29T17:36:02.029Z,101030.59
2019-04-29T17:38:35.154Z,101031.77
2019-04-29T17:41:09.567Z,101028.34
2019-04-29T17:43:45.554Z,101034.64
2019-04-29T17:46:31.419Z,101044.27
2019-04-29T17:52:29.356Z,101050.43
2019-04-29T17:55:02.602Z,101051.20
2019-04-29T17:57:36.406Z,101057.92
2019-04-29T18:00:20.232Z,101057.92
2019-04-29T18:02:57.376Z,101048.47
2019-04-29T18:05:34.384Z,101051.13
2019-04-29T18:08:10.779Z,101047.56
2019-04-29T18:10:45.675Z,101046.55
2019-04-29T18:13:18.787Z,101061.17
2019-04-29T18:16:00.035Z,101053.27
2019-04-29T18:18:17.323Z,101060.55
2019-04-29T18:21:06.418Z,101046.27
2019-04-29T18:23:35.812Z,101042.52
2019-04-29T18:26:05.954Z,101032.02
2019-04-29T18:28:35.813Z,101029.77
2019-04-29T18:31:06.650Z,101029.13
2019-04-29T18:33:35.237Z,101030.61
2019-04-29T18:36:07.169Z,101035.77
2019-04-29T18:38:35.633Z,101045.95
2019-04-29T18:41:04.077Z,101043.22
2019-04-29T18:43:32.537Z,101036.05
2019-04-29T18:46:00.945Z,101038.11
2019-04-29T18:48:29.472Z,101029.95
2019-04-29T18:50:57.882Z,101032.76
2019-04-29T18:53:26.399Z,101032.20
2019-04-29T18:55:55.192Z,101043.03
2019-04-29T18:58:24.926Z,101041.38
2019-04-29T19:00:55.749Z,101038.27
2019-04-29T19:03:29.734Z,101043.15
2019-04-29T19:05:58.730Z,101047.77
2019-04-29T19:08:30.477Z,101042.34
2019-04-29T19:10:57.334Z,101038.45
2019-04-29T19:13:26.097Z,101043.19
2019-04-29T19:16:08.416Z,101046.61
2019-04-29T19:18:25.491Z,101052.74
2019-04-29T19:20:54.816Z,101046.83
2019-04-29T19:23:29.225Z,101045.18
2019-04-29T19:25:54.324Z,101043.56
2019-04-29T19:28:29.955Z,101039.66
2019-04-29T19:30:56.153Z,101026.80
2019-04-29T19:33:25.238Z,101017.35
2019-04-29T19:35:55.431Z,101024.05
2019-04-29T19:38:25.321Z,101027.36
2019-04-29T19:40:53.924Z,101031.28
2019-04-29T19:43:22.358Z,101031.77
2019-04-29T19:45:50.797Z,101038.95
2019-04-29T19:48:22.375Z,101052.56
2019-04-29T19:50:59.639Z,101061.36
2019-04-29T19:53:19.682Z,101065.31
2019-04-29T19:55:48.155Z,101067.37
2019-04-29T19:58:17.331Z,101069.52
2019-04-29T20:00:47.772Z,101061.48
2019-04-29T20:03:23.652Z,101069.22
2019-04-29T20:05:49.486Z,101070.39
2019-04-29T20:08:37.695Z,101076.55
2019-04-29T20:10:51.587Z,101076.33
2019-04-29T20:13:19.118Z,101080.54
2019-04-29T20:15:50.095Z,101084.92
2019-04-29T20:18:31.173Z,101073.27
2019-04-29T20:21:07.773Z,101065.58
2019-04-29T20:23:27.443Z,101060.33
2019-04-29T20:26:05.526Z,101060.55
2019-04-29T20:28:26.096Z,101058.66
2019-04-29T20:31:08.033Z,101060.93
2019-04-29T20:33:24.970Z,101060.44
2019-04-29T20:35:55.475Z,101057.25
2019-04-29T20:38:29.976Z,101060.41
2019-04-29T20:40:57.228Z,101064.81
2019-04-29T20:43:29.380Z,101072.07
2019-04-29T20:45:58.127Z,101062.14
2019-04-29T20:48:26.303Z,101063.93
2019-04-29T20:50:56.622Z,101065.19
2019-04-29T20:53:26.692Z,101066.56
2019-04-29T20:56:09.173Z,101068.03
2019-04-29T20:58:31.430Z,101057.20
2019-04-29T21:01:02.992Z,101055.18
2019-04-29T21:03:32.011Z,101053.61
2019-04-29T21:06:02.717Z,101050.67
2019-04-29T21:08:28.164Z,101057.91
2019-04-29T21:11:00.086Z,101052.52
2019-04-29T21:13:35.843Z,101055.64
2019-04-29T21:16:08.858Z,101059.59
2019-04-29T21:18:38.805Z,101062.43
2019-04-29T21:21:07.956Z,101055.57
2019-04-29T21:23:36.728Z,101046.47
2019-04-29T21:26:08.592Z,101048.29
2019-04-29T21:28:38.227Z,101048.25
2019-04-29T21:31:05.616Z,101045.35
2019-04-29T21:33:35.505Z,101048.68
2019-04-29T21:36:26.496Z,101044.76
2019-04-29T21:39:01.931Z,101047.48
2019-04-29T21:41:45.783Z,101047.24
2019-04-29T21:44:14.388Z,101052.18
2019-04-29T21:46:42.804Z,101053.27
2019-04-29T21:49:11.789Z,101045.98
2019-04-29T21:51:41.852Z,101052.74
2019-04-29T21:54:14.189Z,101045.11
2019-04-29T21:56:46.238Z,101043.22
2019-04-29T21:59:12.412Z,101040.77
2019-04-29T22:01:40.935Z,101034.89
2019-04-29T22:04:09.380Z,101044.09
2019-04-29T22:06:37.870Z,101044.89
2019-04-29T22:09:08.649Z,101048.53
2019-04-29T22:11:43.044Z,101052.81
2019-04-29T22:14:09.807Z,101052.88
2019-04-29T22:16:37.469Z,101052.53
2019-04-29T22:19:05.987Z,101051.83
2019-04-29T22:21:35.998Z,101048.19
2019-04-29T22:24:06.342Z,101053.16
2019-04-29T22:26:35.176Z,101058.41
2019-04-29T22:29:03.754Z,101057.74
2019-04-29T22:31:33.766Z,101054.14
2019-04-29T22:34:02.320Z,101051.83
2019-04-29T22:36:30.780Z,101054.35
2019-04-29T22:38:59.208Z,101052.88
2019-04-29T22:41:48.705Z,101051.20
2019-04-29T22:44:21.928Z,101052.88
2019-04-29T22:46:48.121Z,101051.94
2019-04-29T22:49:19.766Z,101053.69
2019-04-29T22:51:53.591Z,101059.53
2019-04-29T22:54:22.162Z,101057.19
2019-04-29T22:56:53.694Z,101056.88
2019-04-29T22:59:20.311Z,101052.56
2019-04-29T23:01:50.456Z,101048.61
2019-04-29T23:04:18.931Z,101052.18
2019-04-29T23:06:48.138Z,101051.93
2019-04-29T23:09:16.773Z,101052.42
2019-04-29T23:11:47.367Z,101050.74
2019-04-29T23:14:15.776Z,101049.34
2019-04-29T23:16:45.435Z,101047.31
2019-04-29T23:19:17.897Z,101046.61
2019-04-29T23:22:05.776Z,101046.80
2019-04-29T23:24:52.641Z,101048.04
2019-04-29T23:27:21.195Z,101037.05
2019-04-29T23:29:49.623Z,101041.01
2019-04-29T23:32:18.154Z,101037.72
2019-04-29T23:34:46.564Z,101039.11
2019-04-29T23:37:15.014Z,101033.23
2019-04-29T23:39:45.660Z,101035.94
2019-04-29T23:42:16.306Z,101037.72
2019-04-29T23:44:45.842Z,101030.34
2019-04-29T23:47:15.887Z,101029.68
2019-04-29T23:49:46.687Z,101035.31
2019-04-29T23:52:17.645Z,101031.81
2019-04-29T23:54:48.415Z,101034.33
2019-04-29T23:57:23.665Z,101031.56
